Twr-7 — TWR-7 — position and weather

sailwx.info

Track history (hours):
 
Tides and Currents Weather Stations Pressure Air Temp Water Temp Dewpoint Dewpoint Depression Visibility Wind Speed Wind Dir Waves Ship Positions

Twr-7

Last reported at 2015-May-18 22:05 UTC. Time now 2015-May-24 05:12 UTC.
Position N 49°16' W 124°09'.

; draft 1.5 m.

Type: Military. MMSI: 369970258.

Date/timePositionNaut miles runAvg speedWind from/ knotsBaromVisibWave heightAir tempDewpointWater temp
2015-May-18 22:05N 49°16' W 124°09'912.8
2015-May-18 21:25N 49°14' W 123°56'1914.2
2015-May-18 20:06N 49°00' W 123°37'1016.1
2015-May-18 19:30N 48°53' W 123°26'1415.1
2015-May-18 18:33N 48°41' W 123°15'1313.6
2015-May-18 17:33N 48°28' W 123°08'1514.4
2015-May-18 16:31N 48°16' W 122°54'2017.9
2015-May-18 15:23N 47°59' W 122°39'1112.8
2015-May-18 14:33N 47°49' W 122°41'  
Track history (hours):
 
Tides and Currents Weather Stations Pressure Air Temp Water Temp Dewpoint Dewpoint Depression Visibility Wind Speed Wind Dir Waves Ship Positions

Twr-7

Last reported at 2015-May-18 22:05 UTC. Time now 2015-May-24 05:12 UTC.
Position N 49°16' W 124°09'.

; draft 1.5 m.

Type: Military. MMSI: 369970258.

Date/timePositionNaut miles runAvg speedWind from/ knotsBaromVisibWave heightAir tempDewpointWater temp
2015-May-18 22:05N 49°16' W 124°09'912.8
2015-May-18 21:25N 49°14' W 123°56'1914.2
2015-May-18 20:06N 49°00' W 123°37'1016.1
2015-May-18 19:30N 48°53' W 123°26'1415.1
2015-May-18 18:33N 48°41' W 123°15'1313.6
2015-May-18 17:33N 48°28' W 123°08'1514.4
2015-May-18 16:31N 48°16' W 122°54'2017.9
2015-May-18 15:23N 47°59' W 122°39'1112.8
2015-May-18 14:33N 47°49' W 122°41'  

Dump ship's entire track history